sensor_id;sensor_type;location;lat;lon;timestamp;pressure;altitude;pressure_sealevel;temperature;humidity
59513;BME280;45330;51.634;5.562;2023-06-10T00:00:15;101312.66;;;20.82;59.56
59513;BME280;45330;51.634;5.562;2023-06-10T00:02:41;101322.97;;;20.88;59.29
59513;BME280;45330;51.634;5.562;2023-06-10T00:05:07;101307.72;;;20.72;59.94
59513;BME280;45330;51.634;5.562;2023-06-10T00:07:33;101326.66;;;20.84;59.75
59513;BME280;45330;51.634;5.562;2023-06-10T00:10:04;101315.59;;;20.74;59.86
59513;BME280;45330;51.634;5.562;2023-06-10T00:12:30;101307.97;;;20.66;60.53
59513;BME280;45330;51.634;5.562;2023-06-10T00:14:56;101326.09;;;20.76;60.12
59513;BME280;45330;51.634;5.562;2023-06-10T00:17:21;101320.94;;;20.72;60.52
59513;BME280;45330;51.634;5.562;2023-06-10T00:19:48;101319.34;;;20.68;60.11
59513;BME280;45330;51.634;5.562;2023-06-10T00:22:15;101330.03;;;20.65;60.63
59513;BME280;45330;51.634;5.562;2023-06-10T00:24:41;101322.22;;;20.62;61.03
59513;BME280;45330;51.634;5.562;2023-06-10T00:27:07;101306.97;;;20.47;61.47
59513;BME280;45330;51.634;5.562;2023-06-10T00:29:32;101319.31;;;20.46;61.59
59513;BME280;45330;51.634;5.562;2023-06-10T00:31:58;101317.50;;;20.48;61.82
59513;BME280;45330;51.634;5.562;2023-06-10T00:34:24;101323.81;;;20.44;61.72
59513;BME280;45330;51.634;5.562;2023-06-10T00:36:50;101323.06;;;20.40;61.97
59513;BME280;45330;51.634;5.562;2023-06-10T00:39:15;101313.97;;;20.26;62.56
59513;BME280;45330;51.634;5.562;2023-06-10T00:41:41;101305.69;;;20.13;62.84
59513;BME280;45330;51.634;5.562;2023-06-10T00:44:07;101320.50;;;20.17;62.85
59513;BME280;45330;51.634;5.562;2023-06-10T00:46:33;101318.06;;;20.11;63.21
59513;BME280;45330;51.634;5.562;2023-06-10T00:48:59;101312.22;;;20.02;63.82
59513;BME280;45330;51.634;5.562;2023-06-10T00:51:25;101336.69;;;20.08;63.98
59513;BME280;45330;51.634;5.562;2023-06-10T00:53:52;101313.50;;;19.92;64.57
59513;BME280;45330;51.634;5.562;2023-06-10T00:56:18;101322.19;;;19.96;65.00
59513;BME280;45330;51.634;5.562;2023-06-10T00:58:43;101329.47;;;19.89;65.18
59513;BME280;45330;51.634;5.562;2023-06-10T01:01:09;101317.47;;;19.79;65.65
59513;BME280;45330;51.634;5.562;2023-06-10T01:03:36;101323.81;;;19.75;66.08
59513;BME280;45330;51.634;5.562;2023-06-10T01:06:24;101310.09;;;19.63;66.35
59513;BME280;45330;51.634;5.562;2023-06-10T01:09:06;101323.22;;;19.66;67.18
59513;BME280;45330;51.634;5.562;2023-06-10T01:11:47;101316.47;;;19.58;67.96
59513;BME280;45330;51.634;5.562;2023-06-10T01:14:15;101334.81;;;19.62;68.45
59513;BME280;45330;51.634;5.562;2023-06-10T01:16:42;101323.78;;;19.51;68.64
59513;BME280;45330;51.634;5.562;2023-06-10T01:19:07;101320.31;;;19.49;69.04
59513;BME280;45330;51.634;5.562;2023-06-10T01:21:33;101323.78;;;19.51;69.39
59513;BME280;45330;51.634;5.562;2023-06-10T01:23:58;101345.63;;;19.54;70.04
59513;BME280;45330;51.634;5.562;2023-06-10T01:26:32;101326.84;;;19.39;70.32
59513;BME280;45330;51.634;5.562;2023-06-10T01:29:19;101331.28;;;19.38;70.57
59513;BME280;45330;51.634;5.562;2023-06-10T01:32:01;101321.78;;;19.32;71.25
59513;BME280;45330;51.634;5.562;2023-06-10T01:34:31;101343.69;;;19.34;72.10
59513;BME280;45330;51.634;5.562;2023-06-10T01:36:58;101343.00;;;19.29;72.93
59513;BME280;45330;51.634;5.562;2023-06-10T01:39:24;101345.78;;;19.25;73.65
59513;BME280;45330;51.634;5.562;2023-06-10T01:41:51;101339.75;;;19.21;74.06
59513;BME280;45330;51.634;5.562;2023-06-10T01:44:21;101325.44;;;19.03;74.88
59513;BME280;45330;51.634;5.562;2023-06-10T01:46:47;101337.69;;;19.04;75.37
59513;BME280;45330;51.634;5.562;2023-06-10T01:49:12;101338.00;;;18.95;75.92
59513;BME280;45330;51.634;5.562;2023-06-10T01:51:38;101345.75;;;18.99;76.42
59513;BME280;45330;51.634;5.562;2023-06-10T01:54:04;101327.69;;;18.87;76.94
59513;BME280;45330;51.634;5.562;2023-06-10T01:56:29;101328.78;;;18.80;78.24
59513;BME280;45330;51.634;5.562;2023-06-10T01:58:54;101313.38;;;18.67;79.12
59513;BME280;45330;51.634;5.562;2023-06-10T02:01:27;101329.09;;;18.71;79.58
59513;BME280;45330;51.634;5.562;2023-06-10T02:03:52;101338.66;;;18.73;80.22
59513;BME280;45330;51.634;5.562;2023-06-10T02:06:18;101345.81;;;18.69;80.99
59513;BME280;45330;51.634;5.562;2023-06-10T02:08:43;101334.66;;;18.61;81.29
59513;BME280;45330;51.634;5.562;2023-06-10T02:11:09;101344.16;;;18.67;81.56
59513;BME280;45330;51.634;5.562;2023-06-10T02:13:34;101345.00;;;18.67;81.93
59513;BME280;45330;51.634;5.562;2023-06-10T02:16:00;101329.53;;;18.57;82.18
59513;BME280;45330;51.634;5.562;2023-06-10T02:18:26;101352.09;;;18.65;82.34
59513;BME280;45330;51.634;5.562;2023-06-10T02:20:53;101337.53;;;18.54;83.33
59513;BME280;45330;51.634;5.562;2023-06-10T02:23:18;101331.50;;;18.50;83.18
59513;BME280;45330;51.634;5.562;2023-06-10T02:25:43;101351.47;;;18.57;84.04
59513;BME280;45330;51.634;5.562;2023-06-10T02:28:09;101337.00;;;18.42;84.25
59513;BME280;45330;51.634;5.562;2023-06-10T02:30:35;101357.00;;;18.49;84.65
59513;BME280;45330;51.634;5.562;2023-06-10T02:33:00;101357.06;;;18.46;85.04
59513;BME280;45330;51.634;5.562;2023-06-10T02:35:26;101346.84;;;18.37;86.02
59513;BME280;45330;51.634;5.562;2023-06-10T02:37:51;101348.75;;;18.32;86.25
59513;BME280;45330;51.634;5.562;2023-06-10T02:40:17;101358.31;;;18.34;86.64
59513;BME280;45330;51.634;5.562;2023-06-10T02:42:42;101344.41;;;18.29;86.88
59513;BME280;45330;51.634;5.562;2023-06-10T02:45:08;101363.78;;;18.28;88.03
59513;BME280;45330;51.634;5.562;2023-06-10T02:47:33;101369.13;;;18.25;88.54
59513;BME280;45330;51.634;5.562;2023-06-10T02:49:58;101338.75;;;18.13;89.02
59513;BME280;45330;51.634;5.562;2023-06-10T02:52:24;101346.81;;;18.09;89.32
59513;BME280;45330;51.634;5.562;2023-06-10T02:54:50;101341.50;;;18.10;89.32
59513;BME280;45330;51.634;5.562;2023-06-10T02:57:15;101357.16;;;18.15;89.75
59513;BME280;45330;51.634;5.562;2023-06-10T02:59:40;101350.16;;;18.14;90.21
59513;BME280;45330;51.634;5.562;2023-06-10T03:02:06;101341.69;;;18.03;90.03
59513;BME280;45330;51.634;5.562;2023-06-10T03:04:32;101359.03;;;18.10;90.93
59513;BME280;45330;51.634;5.562;2023-06-10T03:06:58;101345.47;;;17.94;91.30
59513;BME280;45330;51.634;5.562;2023-06-10T03:09:25;101363.75;;;17.98;91.95
59513;BME280;45330;51.634;5.562;2023-06-10T03:11:51;101359.53;;;17.93;92.25
59513;BME280;45330;51.634;5.562;2023-06-10T03:14:16;101367.38;;;17.94;92.41
59513;BME280;45330;51.634;5.562;2023-06-10T03:16:42;101350.19;;;17.81;92.51
59513;BME280;45330;51.634;5.562;2023-06-10T03:19:08;101368.44;;;17.87;93.23
59513;BME280;45330;51.634;5.562;2023-06-10T03:21:34;101364.16;;;17.83;93.45
59513;BME280;45330;51.634;5.562;2023-06-10T03:24:00;101370.19;;;17.88;93.05
59513;BME280;45330;51.634;5.562;2023-06-10T03:26:26;101349.63;;;17.70;93.53
59513;BME280;45330;51.634;5.562;2023-06-10T03:28:52;101372.25;;;17.77;94.07
59513;BME280;45330;51.634;5.562;2023-06-10T03:31:18;101351.47;;;17.66;94.06
59513;BME280;45330;51.634;5.562;2023-06-10T03:33:43;101376.72;;;17.73;94.47
59513;BME280;45330;51.634;5.562;2023-06-10T03:36:09;101383.66;;;17.76;94.16
59513;BME280;45330;51.634;5.562;2023-06-10T03:38:34;101382.91;;;17.72;94.48
59513;BME280;45330;51.634;5.562;2023-06-10T03:41:00;101385.59;;;17.69;94.66
59513;BME280;45330;51.634;5.562;2023-06-10T03:43:26;101371.53;;;17.70;94.23
59513;BME280;45330;51.634;5.562;2023-06-10T03:45:52;101382.97;;;17.71;94.30
59513;BME280;45330;51.634;5.562;2023-06-10T03:48:18;101391.66;;;17.73;93.36
59513;BME280;45330;51.634;5.562;2023-06-10T03:50:43;101381.31;;;17.66;94.07
59513;BME280;45330;51.634;5.562;2023-06-10T03:53:08;101390.81;;;17.72;93.33
59513;BME280;45330;51.634;5.562;2023-06-10T03:55:34;101392.41;;;17.78;92.99
59513;BME280;45330;51.634;5.562;2023-06-10T03:58:00;101389.81;;;17.76;93.46
59513;BME280;45330;51.634;5.562;2023-06-10T04:00:25;101393.31;;;17.77;93.17
59513;BME280;45330;51.634;5.562;2023-06-10T04:02:50;101368.97;;;17.69;92.48
59513;BME280;45330;51.634;5.562;2023-06-10T04:05:18;101392.38;;;17.79;92.63
59513;BME280;45330;51.634;5.562;2023-06-10T04:07:44;101394.06;;;17.82;92.18
59513;BME280;45330;51.634;5.562;2023-06-10T04:10:12;101389.50;;;17.87;91.15
59513;BME280;45330;51.634;5.562;2023-06-10T04:12:38;101391.19;;;17.91;91.37
59513;BME280;45330;51.634;5.562;2023-06-10T04:15:04;101390.28;;;17.92;90.70
59513;BME280;45330;51.634;5.562;2023-06-10T04:17:30;101381.56;;;17.89;90.03
59513;BME280;45330;51.634;5.562;2023-06-10T04:19:56;101379.81;;;17.89;89.70
59513;BME280;45330;51.634;5.562;2023-06-10T04:22:21;101381.56;;;17.89;89.57
59513;BME280;45330;51.634;5.562;2023-06-10T04:24:48;101403.97;;;18.05;89.12
59513;BME280;45330;51.634;5.562;2023-06-10T04:27:13;101383.94;;;17.99;88.80
59513;BME280;45330;51.634;5.562;2023-06-10T04:29:38;101383.84;;;18.32;87.01
59513;BME280;45330;51.634;5.562;2023-06-10T04:32:04;101401.97;;;19.28;83.07
59513;BME280;45330;51.634;5.562;2023-06-10T04:34:36;101410.53;;;20.11;76.68
59513;BME280;45330;51.634;5.562;2023-06-10T04:37:01;101405.94;;;20.63;73.08
59513;BME280;45330;51.634;5.562;2023-06-10T04:39:27;101410.13;;;21.13;70.59
59513;BME280;45330;51.634;5.562;2023-06-10T04:41:52;101393.97;;;21.19;68.61
59513;BME280;45330;51.634;5.562;2023-06-10T04:44:18;101421.06;;;21.47;66.62
59513;BME280;45330;51.634;5.562;2023-06-10T04:46:44;101407.88;;;21.67;65.87
59513;BME280;45330;51.634;5.562;2023-06-10T04:49:09;101400.56;;;21.93;64.32
59513;BME280;45330;51.634;5.562;2023-06-10T04:51:34;101401.97;;;22.40;62.46
59513;BME280;45330;51.634;5.562;2023-06-10T04:54:00;101402.69;;;22.43;61.17
59513;BME280;45330;51.634;5.562;2023-06-10T04:56:29;101400.25;;;22.58;60.98
59513;BME280;45330;51.634;5.562;2023-06-10T04:58:58;101418.25;;;22.88;59.96
59513;BME280;45330;51.634;5.562;2023-06-10T05:01:24;101409.47;;;23.05;59.23
59513;BME280;45330;51.634;5.562;2023-06-10T05:03:49;101414.28;;;22.79;58.52
59513;BME280;45330;51.634;5.562;2023-06-10T05:06:14;101405.03;;;23.05;58.12
59513;BME280;45330;51.634;5.562;2023-06-10T05:08:40;101416.78;;;23.19;57.50
59513;BME280;45330;51.634;5.562;2023-06-10T05:11:05;101409.19;;;23.11;57.42
59513;BME280;45330;51.634;5.562;2023-06-10T05:13:31;101419.47;;;23.36;57.06
59513;BME280;45330;51.634;5.562;2023-06-10T05:15:57;101413.84;;;23.25;57.09
59513;BME280;45330;51.634;5.562;2023-06-10T05:18:22;101414.59;;;23.27;56.72
59513;BME280;45330;51.634;5.562;2023-06-10T05:20:47;101403.97;;;23.27;55.97
59513;BME280;45330;51.634;5.562;2023-06-10T05:23:13;101415.63;;;23.42;55.91
59513;BME280;45330;51.634;5.562;2023-06-10T05:25:38;101423.13;;;23.34;55.92
59513;BME280;45330;51.634;5.562;2023-06-10T05:28:04;101409.22;;;23.46;55.61
59513;BME280;45330;51.634;5.562;2023-06-10T05:30:29;101411.88;;;23.46;55.47
59513;BME280;45330;51.634;5.562;2023-06-10T05:32:54;101422.81;;;23.57;55.34
59513;BME280;45330;51.634;5.562;2023-06-10T05:35:21;101419.34;;;24.24;54.12
59513;BME280;45330;51.634;5.562;2023-06-10T05:37:47;101418.84;;;24.97;52.75
59513;BME280;45330;51.634;5.562;2023-06-10T05:40:12;101419.75;;;25.12;50.42
59513;BME280;45330;51.634;5.562;2023-06-10T05:42:37;101404.00;;;24.29;51.59
59513;BME280;45330;51.634;5.562;2023-06-10T05:45:05;101419.06;;;24.28;52.37
59513;BME280;45330;51.634;5.562;2023-06-10T05:47:31;101408.06;;;24.19;52.04
59513;BME280;45330;51.634;5.562;2023-06-10T05:49:56;101428.97;;;24.42;52.26
59513;BME280;45330;51.634;5.562;2023-06-10T05:52:22;101425.88;;;24.01;52.36
59513;BME280;45330;51.634;5.562;2023-06-10T05:54:49;101416.84;;;24.21;52.77
59513;BME280;45330;51.634;5.562;2023-06-10T05:57:15;101431.25;;;24.48;51.82
59513;BME280;45330;51.634;5.562;2023-06-10T05:59:40;101429.69;;;24.62;50.71
59513;BME280;45330;51.634;5.562;2023-06-10T06:02:05;101432.00;;;24.84;50.75
59513;BME280;45330;51.634;5.562;2023-06-10T06:04:31;101417.72;;;25.01;50.43
59513;BME280;45330;51.634;5.562;2023-06-10T06:06:57;101430.28;;;24.83;50.67
59513;BME280;45330;51.634;5.562;2023-06-10T06:09:22;101429.56;;;24.79;50.04
59513;BME280;45330;51.634;5.562;2023-06-10T06:11:48;101429.09;;;24.73;51.22
59513;BME280;45330;51.634;5.562;2023-06-10T06:14:13;101433.53;;;24.88;50.83
59513;BME280;45330;51.634;5.562;2023-06-10T06:16:38;101418.44;;;25.49;48.94
59513;BME280;45330;51.634;5.562;2023-06-10T06:19:04;101416.91;;;25.45;49.10
59513;BME280;45330;51.634;5.562;2023-06-10T06:21:29;101412.84;;;25.24;48.42
59513;BME280;45330;51.634;5.562;2023-06-10T06:23:55;101432.06;;;25.45;48.58
59513;BME280;45330;51.634;5.562;2023-06-10T06:26:20;101435.34;;;25.79;47.83
59513;BME280;45330;51.634;5.562;2023-06-10T06:28:46;101433.41;;;25.52;47.91
59513;BME280;45330;51.634;5.562;2023-06-10T06:31:11;101419.69;;;25.28;48.02
59513;BME280;45330;51.634;5.562;2023-06-10T06:33:37;101415.84;;;25.78;47.30
59513;BME280;45330;51.634;5.562;2023-06-10T06:36:02;101433.16;;;25.85;46.94
59513;BME280;45330;51.634;5.562;2023-06-10T06:38:28;101434.09;;;25.99;46.69
59513;BME280;45330;51.634;5.562;2023-06-10T06:40:53;101436.47;;;25.60;46.31
59513;BME280;45330;51.634;5.562;2023-06-10T06:43:19;101433.75;;;26.19;46.15
59513;BME280;45330;51.634;5.562;2023-06-10T06:45:44;101443.63;;;26.46;45.24
59513;BME280;45330;51.634;5.562;2023-06-10T06:48:12;101441.78;;;26.76;45.07
59513;BME280;45330;51.634;5.562;2023-06-10T06:50:38;101441.59;;;27.06;44.45
59513;BME280;45330;51.634;5.562;2023-06-10T06:53:04;101430.63;;;27.24;43.28
59513;BME280;45330;51.634;5.562;2023-06-10T06:55:30;101442.34;;;26.66;44.67
59513;BME280;45330;51.634;5.562;2023-06-10T06:57:55;101443.97;;;25.68;45.91
59513;BME280;45330;51.634;5.562;2023-06-10T07:00:21;101423.72;;;24.57;48.55
59513;BME280;45330;51.634;5.562;2023-06-10T07:02:46;101441.31;;;23.94;50.75
59513;BME280;45330;51.634;5.562;2023-06-10T07:05:12;101444.94;;;23.40;52.56
59513;BME280;45330;51.634;5.562;2023-06-10T07:07:37;101441.38;;;23.40;53.36
59513;BME280;45330;51.634;5.562;2023-06-10T07:10:03;101448.34;;;23.25;53.33
59513;BME280;45330;51.634;5.562;2023-06-10T07:12:28;101445.63;;;23.26;53.84
59513;BME280;45330;51.634;5.562;2023-06-10T07:14:54;101449.91;;;23.29;52.97
59513;BME280;45330;51.634;5.562;2023-06-10T07:17:19;101450.16;;;23.05;53.38
59513;BME280;45330;51.634;5.562;2023-06-10T07:19:45;101462.22;;;23.12;55.15
59513;BME280;45330;51.634;5.562;2023-06-10T07:22:11;101438.03;;;23.19;53.63
59513;BME280;45330;51.634;5.562;2023-06-10T07:24:36;101444.13;;;23.21;54.01
59513;BME280;45330;51.634;5.562;2023-06-10T07:27:02;101442.63;;;23.15;53.96
59513;BME280;45330;51.634;5.562;2023-06-10T07:29:27;101439.75;;;23.20;54.09
59513;BME280;45330;51.634;5.562;2023-06-10T07:31:52;101455.75;;;23.36;54.55
59513;BME280;45330;51.634;5.562;2023-06-10T07:34:19;101444.53;;;23.48;54.00
59513;BME280;45330;51.634;5.562;2023-06-10T07:36:44;101460.22;;;23.70;53.48
59513;BME280;45330;51.634;5.562;2023-06-10T07:39:10;101439.75;;;23.55;52.84
59513;BME280;45330;51.634;5.562;2023-06-10T07:41:35;101463.50;;;23.75;52.92
59513;BME280;45330;51.634;5.562;2023-06-10T07:44:01;101452.00;;;23.75;53.45
59513;BME280;45330;51.634;5.562;2023-06-10T07:46:26;101457.28;;;23.94;53.17
59513;BME280;45330;51.634;5.562;2023-06-10T07:48:53;101460.78;;;23.94;52.25
59513;BME280;45330;51.634;5.562;2023-06-10T07:51:19;101459.34;;;24.05;52.40
59513;BME280;45330;51.634;5.562;2023-06-10T07:53:44;101471.91;;;24.19;51.65
59513;BME280;45330;51.634;5.562;2023-06-10T07:56:10;101465.56;;;24.21;51.16
59513;BME280;45330;51.634;5.562;2023-06-10T07:58:35;101464.47;;;24.25;51.58
59513;BME280;45330;51.634;5.562;2023-06-10T08:01:00;101449.44;;;24.24;51.00
59513;BME280;45330;51.634;5.562;2023-06-10T08:03:26;101463.38;;;24.45;51.97
59513;BME280;45330;51.634;5.562;2023-06-10T08:05:51;101468.69;;;24.45;50.94
59513;BME280;45330;51.634;5.562;2023-06-10T08:08:16;101468.69;;;24.45;51.14
59513;BME280;45330;51.634;5.562;2023-06-10T08:10:42;101452.34;;;24.69;50.66
59513;BME280;45330;51.634;5.562;2023-06-10T08:13:08;101451.75;;;24.80;50.47
59513;BME280;45330;51.634;5.562;2023-06-10T08:15:33;101462.63;;;24.91;49.87
59513;BME280;45330;51.634;5.562;2023-06-10T08:17:59;101459.09;;;24.91;49.10
59513;BME280;45330;51.634;5.562;2023-06-10T08:20:24;101459.03;;;24.92;48.07
59513;BME280;45330;51.634;5.562;2023-06-10T08:22:50;101456.63;;;25.04;50.02
59513;BME280;45330;51.634;5.562;2023-06-10T08:25:15;101459.84;;;25.09;48.49
59513;BME280;45330;51.634;5.562;2023-06-10T08:27:41;101457.09;;;25.10;49.14
59513;BME280;45330;51.634;5.562;2023-06-10T08:30:07;101470.09;;;25.16;48.63
59513;BME280;45330;51.634;5.562;2023-06-10T08:32:33;101461.06;;;25.19;47.76
59513;BME280;45330;51.634;5.562;2023-06-10T08:34:58;101450.72;;;25.29;47.68
59513;BME280;45330;51.634;5.562;2023-06-10T08:37:24;101445.06;;;25.35;46.75
59513;BME280;45330;51.634;5.562;2023-06-10T08:39:49;101453.09;;;25.49;47.64
59513;BME280;45330;51.634;5.562;2023-06-10T08:44:52;101460.84;;;25.68;45.91
59513;BME280;45330;51.634;5.562;2023-06-10T08:47:19;101461.16;;;25.78;46.94
59513;BME280;45330;51.634;5.562;2023-06-10T08:49:47;101450.09;;;25.84;46.16
59513;BME280;45330;51.634;5.562;2023-06-10T08:52:20;101454.88;;;25.94;45.85
59513;BME280;45330;51.634;5.562;2023-06-10T08:54:52;101452.97;;;25.96;45.68
59513;BME280;45330;51.634;5.562;2023-06-10T08:57:20;101443.94;;;25.84;45.17
59513;BME280;45330;51.634;5.562;2023-06-10T08:59:47;101460.03;;;25.97;44.09
59513;BME280;45330;51.634;5.562;2023-06-10T09:02:14;101460.25;;;26.08;45.95
59513;BME280;45330;51.634;5.562;2023-06-10T09:04:42;101458.44;;;26.09;46.28
59513;BME280;45330;51.634;5.562;2023-06-10T09:07:09;101449.19;;;26.14;45.84
59513;BME280;45330;51.634;5.562;2023-06-10T09:09:36;101453.66;;;26.28;44.72
59513;BME280;45330;51.634;5.562;2023-06-10T09:12:01;101461.94;;;26.38;44.98
59513;BME280;45330;51.634;5.562;2023-06-10T09:14:27;101466.34;;;26.39;44.48
59513;BME280;45330;51.634;5.562;2023-06-10T09:16:52;101444.78;;;26.42;44.70
59513;BME280;45330;51.634;5.562;2023-06-10T09:19:23;101458.50;;;26.50;43.47
59513;BME280;45330;51.634;5.562;2023-06-10T09:21:50;101448.50;;;26.40;42.56
59513;BME280;45330;51.634;5.562;2023-06-10T09:24:15;101445.72;;;26.41;43.78
59513;BME280;45330;51.634;5.562;2023-06-10T09:26:42;101456.84;;;26.62;43.66
59513;BME280;45330;51.634;5.562;2023-06-10T09:29:08;101458.38;;;26.66;44.20
59513;BME280;45330;51.634;5.562;2023-06-10T09:31:35;101426.06;;;26.57;43.81
59513;BME280;45330;51.634;5.562;2023-06-10T09:34:14;101453.38;;;26.89;45.10
59513;BME280;45330;51.634;5.562;2023-06-10T09:36:40;101454.56;;;26.85;44.79
59513;BME280;45330;51.634;5.562;2023-06-10T09:39:14;101457.31;;;26.83;43.73
59513;BME280;45330;51.634;5.562;2023-06-10T09:41:44;101462.31;;;27.02;43.29
59513;BME280;45330;51.634;5.562;2023-06-10T09:44:14;101455.34;;;27.00;43.67
59513;BME280;45330;51.634;5.562;2023-06-10T09:46:40;101450.91;;;26.86;42.72
59513;BME280;45330;51.634;5.562;2023-06-10T09:49:06;101446.34;;;26.88;43.65
59513;BME280;45330;51.634;5.562;2023-06-10T09:51:31;101442.78;;;26.87;42.97
59513;BME280;45330;51.634;5.562;2023-06-10T09:53:57;101451.47;;;26.91;43.35
59513;BME280;45330;51.634;5.562;2023-06-10T09:56:35;101452.38;;;27.04;42.23
59513;BME280;45330;51.634;5.562;2023-06-10T09:59:02;101445.59;;;26.99;43.17
59513;BME280;45330;51.634;5.562;2023-06-10T10:01:28;101456.66;;;27.07;41.63
59513;BME280;45330;51.634;5.562;2023-06-10T10:03:55;101428.50;;;27.16;43.06
59513;BME280;45330;51.634;5.562;2023-06-10T10:06:21;101428.50;;;27.29;42.71
59513;BME280;45330;51.634;5.562;2023-06-10T10:08:48;101442.25;;;27.37;42.09
59513;BME280;45330;51.634;5.562;2023-06-10T10:11:16;101425.84;;;27.29;42.39
59513;BME280;45330;51.634;5.562;2023-06-10T10:13:48;101431.34;;;27.40;43.39
59513;BME280;45330;51.634;5.562;2023-06-10T10:16:19;101421.72;;;27.50;42.74
59513;BME280;45330;51.634;5.562;2023-06-10T10:18:52;101424.84;;;27.57;40.94
59513;BME280;45330;51.634;5.562;2023-06-10T10:21:22;101430.81;;;27.61;41.24
59513;BME280;45330;51.634;5.562;2023-06-10T10:24:01;101430.19;;;27.70;41.33
59513;BME280;45330;51.634;5.562;2023-06-10T10:26:29;101425.25;;;27.89;41.80
59513;BME280;45330;51.634;5.562;2023-06-10T10:29:05;101430.38;;;27.93;41.09
59513;BME280;45330;51.634;5.562;2023-06-10T10:31:34;101428.91;;;28.01;40.61
59513;BME280;45330;51.634;5.562;2023-06-10T10:34:04;101417.78;;;27.95;42.06
59513;BME280;45330;51.634;5.562;2023-06-10T10:36:30;101421.19;;;28.10;41.79
59513;BME280;45330;51.634;5.562;2023-06-10T10:38:57;101433.47;;;28.25;42.06
59513;BME280;45330;51.634;5.562;2023-06-10T10:41:24;101430.91;;;28.23;42.54
59513;BME280;45330;51.634;5.562;2023-06-10T10:43:51;101417.75;;;28.20;41.09
59513;BME280;45330;51.634;5.562;2023-06-10T10:46:17;101412.97;;;28.00;40.86
59513;BME280;45330;51.634;5.562;2023-06-10T10:48:43;101424.44;;;28.02;41.23
59513;BME280;45330;51.634;5.562;2023-06-10T10:51:09;101412.56;;;28.06;41.48
59513;BME280;45330;51.634;5.562;2023-06-10T10:53:38;101410.50;;;27.97;41.69
59513;BME280;45330;51.634;5.562;2023-06-10T10:56:14;101407.41;;;28.03;42.37
59513;BME280;45330;51.634;5.562;2023-06-10T10:58:40;101407.41;;;28.16;40.75
59513;BME280;45330;51.634;5.562;2023-06-10T11:01:13;101402.25;;;28.13;40.25
59513;BME280;45330;51.634;5.562;2023-06-10T11:03:46;101418.06;;;28.29;40.24
59513;BME280;45330;51.634;5.562;2023-06-10T11:06:16;101408.00;;;28.19;38.14
59513;BME280;45330;51.634;5.562;2023-06-10T11:11:26;101407.88;;;28.34;39.80
59513;BME280;45330;51.634;5.562;2023-06-10T11:16:28;101404.31;;;28.46;39.03
59513;BME280;45330;51.634;5.562;2023-06-10T11:18:55;101390.50;;;28.39;39.45
59513;BME280;45330;51.634;5.562;2023-06-10T11:21:20;101389.34;;;28.31;38.43
59513;BME280;45330;51.634;5.562;2023-06-10T11:23:46;101388.75;;;28.51;39.57
59513;BME280;45330;51.634;5.562;2023-06-10T11:26:30;101396.09;;;28.61;38.94
59513;BME280;45330;51.634;5.562;2023-06-10T11:31:31;101388.91;;;28.74;38.91
59513;BME280;45330;51.634;5.562;2023-06-10T11:33:59;101390.38;;;28.54;38.77
59513;BME280;45330;51.634;5.562;2023-06-10T11:36:26;101398.50;;;28.65;38.61
59513;BME280;45330;51.634;5.562;2023-06-10T11:39:03;101378.16;;;28.63;39.08
59513;BME280;45330;51.634;5.562;2023-06-10T11:41:29;101380.09;;;28.85;39.29
59513;BME280;45330;51.634;5.562;2023-06-10T11:43:57;101397.28;;;28.94;36.84
59513;BME280;45330;51.634;5.562;2023-06-10T11:46:26;101382.53;;;28.88;38.04
59513;BME280;45330;51.634;5.562;2023-06-10T11:48:56;101389.78;;;29.10;37.10
59513;BME280;45330;51.634;5.562;2023-06-10T11:51:23;101388.53;;;29.27;36.39
59513;BME280;45330;51.634;5.562;2023-06-10T11:53:50;101391.75;;;29.19;35.79
59513;BME280;45330;51.634;5.562;2023-06-10T11:56:29;101388.88;;;29.34;36.26
59513;BME280;45330;51.634;5.562;2023-06-10T11:59:05;101375.00;;;29.29;35.23
59513;BME280;45330;51.634;5.562;2023-06-10T12:01:43;101368.56;;;29.42;36.77
59513;BME280;45330;51.634;5.562;2023-06-10T12:04:10;101382.34;;;29.60;35.31
59513;BME280;45330;51.634;5.562;2023-06-10T12:06:44;101381.13;;;29.53;35.77
59513;BME280;45330;51.634;5.562;2023-06-10T12:09:17;101361.34;;;29.32;35.52
59513;BME280;45330;51.634;5.562;2023-06-10T12:11:43;101369.41;;;29.32;35.60
59513;BME280;45330;51.634;5.562;2023-06-10T12:14:09;101363.72;;;29.12;35.38
59513;BME280;45330;51.634;5.562;2023-06-10T12:16:34;101342.16;;;29.14;35.74
59513;BME280;45330;51.634;5.562;2023-06-10T12:19:04;101362.22;;;29.43;35.82
59513;BME280;45330;51.634;5.562;2023-06-10T12:21:32;101360.66;;;29.52;35.08
59513;BME280;45330;51.634;5.562;2023-06-10T12:24:08;101356.13;;;29.30;34.18
59513;BME280;45330;51.634;5.562;2023-06-10T12:26:41;101345.72;;;29.14;34.08
59513;BME280;45330;51.634;5.562;2023-06-10T12:29:23;101341.38;;;29.24;36.17
59513;BME280;45330;51.634;5.562;2023-06-10T12:32:03;101347.72;;;29.35;34.91
59513;BME280;45330;51.634;5.562;2023-06-10T12:36:55;101350.78;;;29.53;35.14
59513;BME280;45330;51.634;5.562;2023-06-10T12:39:21;101357.63;;;29.57;32.94
59513;BME280;45330;51.634;5.562;2023-06-10T12:41:48;101358.34;;;29.59;33.42
59513;BME280;45330;51.634;5.562;2023-06-10T12:44:14;101350.53;;;29.67;33.58
59513;BME280;45330;51.634;5.562;2023-06-10T12:46:39;101357.88;;;29.76;33.40
59513;BME280;45330;51.634;5.562;2023-06-10T12:49:04;101365.09;;;29.87;33.14
59513;BME280;45330;51.634;5.562;2023-06-10T12:51:30;101356.31;;;29.85;33.02
59513;BME280;45330;51.634;5.562;2023-06-10T12:53:55;101344.34;;;29.89;32.72
59513;BME280;45330;51.634;5.562;2023-06-10T12:56:20;101355.91;;;30.13;33.97
59513;BME280;45330;51.634;5.562;2023-06-10T12:58:47;101342.38;;;30.14;32.77
59513;BME280;45330;51.634;5.562;2023-06-10T13:01:13;101357.75;;;30.01;31.88